sensor_id;sensor_type;location;lat;lon;timestamp;P1;durP1;ratioP1;P2;durP2;ratioP2
62740;SDS011;48790;55.656;37.702;2022-09-09T00:04:36;4.88;;;2.72;;
62740;SDS011;48790;55.656;37.702;2022-09-09T00:10:03;4.90;;;2.65;;
62740;SDS011;48790;55.656;37.702;2022-09-09T00:12:40;7.72;;;3.33;;
62740;SDS011;48790;55.656;37.702;2022-09-09T00:15:11;4.50;;;3.10;;
62740;SDS011;48790;55.656;37.702;2022-09-09T00:17:43;7.72;;;3.35;;
62740;SDS011;48790;55.656;37.702;2022-09-09T00:20:14;5.68;;;3.08;;
62740;SDS011;48790;55.656;37.702;2022-09-09T00:22:49;9.75;;;3.88;;
62740;SDS011;48790;55.656;37.702;2022-09-09T00:25:23;9.18;;;3.65;;
62740;SDS011;48790;55.656;37.702;2022-09-09T00:27:52;8.10;;;3.60;;
62740;SDS011;48790;55.656;37.702;2022-09-09T00:30:21;12.27;;;3.50;;
62740;SDS011;48790;55.656;37.702;2022-09-09T00:32:49;9.50;;;3.80;;
62740;SDS011;48790;55.656;37.702;2022-09-09T00:35:17;8.27;;;3.88;;
62740;SDS011;48790;55.656;37.702;2022-09-09T00:37:44;6.22;;;3.28;;
62740;SDS011;48790;55.656;37.702;2022-09-09T00:40:23;6.38;;;3.17;;
62740;SDS011;48790;55.656;37.702;2022-09-09T00:43:01;6.80;;;2.88;;
62740;SDS011;48790;55.656;37.702;2022-09-09T00:48:09;7.60;;;3.97;;
62740;SDS011;48790;55.656;37.702;2022-09-09T00:50:47;7.13;;;3.67;;
62740;SDS011;48790;55.656;37.702;2022-09-09T00:53:19;10.38;;;4.05;;
62740;SDS011;48790;55.656;37.702;2022-09-09T00:58:15;9.55;;;3.72;;
62740;SDS011;48790;55.656;37.702;2022-09-09T01:00:46;7.75;;;3.80;;
62740;SDS011;48790;55.656;37.702;2022-09-09T01:03:18;7.95;;;3.47;;
62740;SDS011;48790;55.656;37.702;2022-09-09T01:10:59;9.32;;;3.25;;
62740;SDS011;48790;55.656;37.702;2022-09-09T01:13:33;6.88;;;3.40;;
62740;SDS011;48790;55.656;37.702;2022-09-09T01:16:07;9.75;;;3.35;;
62740;SDS011;48790;55.656;37.702;2022-09-09T01:18:39;7.55;;;3.45;;
62740;SDS011;48790;55.656;37.702;2022-09-09T01:21:13;7.97;;;3.50;;
62740;SDS011;48790;55.656;37.702;2022-09-09T01:29:01;6.47;;;3.03;;
62740;SDS011;48790;55.656;37.702;2022-09-09T01:31:36;8.82;;;3.55;;
62740;SDS011;48790;55.656;37.702;2022-09-09T01:34:08;9.02;;;4.25;;
62740;SDS011;48790;55.656;37.702;2022-09-09T01:39:37;6.10;;;3.65;;
62740;SDS011;48790;55.656;37.702;2022-09-09T01:42:07;5.15;;;3.78;;
62740;SDS011;48790;55.656;37.702;2022-09-09T01:44:34;7.70;;;3.95;;
62740;SDS011;48790;55.656;37.702;2022-09-09T01:47:01;6.47;;;4.07;;
62740;SDS011;48790;55.656;37.702;2022-09-09T01:49:28;8.25;;;4.07;;
62740;SDS011;48790;55.656;37.702;2022-09-09T01:51:55;10.15;;;3.78;;
62740;SDS011;48790;55.656;37.702;2022-09-09T01:54:34;9.43;;;3.90;;
62740;SDS011;48790;55.656;37.702;2022-09-09T01:57:15;7.80;;;3.17;;
62740;SDS011;48790;55.656;37.702;2022-09-09T01:59:48;10.65;;;3.70;;
62740;SDS011;48790;55.656;37.702;2022-09-09T02:04:48;8.73;;;3.88;;
62740;SDS011;48790;55.656;37.702;2022-09-09T02:10:03;8.20;;;4.18;;
62740;SDS011;48790;55.656;37.702;2022-09-09T02:12:32;8.48;;;4.57;;
62740;SDS011;48790;55.656;37.702;2022-09-09T02:15:02;8.40;;;4.28;;
62740;SDS011;48790;55.656;37.702;2022-09-09T02:17:36;10.80;;;3.88;;
62740;SDS011;48790;55.656;37.702;2022-09-09T02:20:12;8.13;;;4.53;;
62740;SDS011;48790;55.656;37.702;2022-09-09T02:22:53;11.70;;;4.50;;
62740;SDS011;48790;55.656;37.702;2022-09-09T02:25:22;6.13;;;3.92;;
62740;SDS011;48790;55.656;37.702;2022-09-09T02:27:52;7.18;;;4.38;;
62740;SDS011;48790;55.656;37.702;2022-09-09T02:30:18;8.13;;;4.63;;
62740;SDS011;48790;55.656;37.702;2022-09-09T02:32:51;6.07;;;4.20;;
62740;SDS011;48790;55.656;37.702;2022-09-09T02:35:21;11.30;;;4.60;;
62740;SDS011;48790;55.656;37.702;2022-09-09T02:37:51;11.77;;;3.95;;
62740;SDS011;48790;55.656;37.702;2022-09-09T02:40:18;8.27;;;3.83;;
62740;SDS011;48790;55.656;37.702;2022-09-09T02:42:49;5.57;;;3.85;;
62740;SDS011;48790;55.656;37.702;2022-09-09T02:45:21;5.20;;;3.63;;
62740;SDS011;48790;55.656;37.702;2022-09-09T02:47:53;7.18;;;3.58;;
62740;SDS011;48790;55.656;37.702;2022-09-09T02:50:26;7.45;;;3.72;;
62740;SDS011;48790;55.656;37.702;2022-09-09T02:56:04;7.93;;;3.88;;
62740;SDS011;48790;55.656;37.702;2022-09-09T02:58:30;7.75;;;3.80;;
62740;SDS011;48790;55.656;37.702;2022-09-09T03:01:00;7.47;;;3.75;;
62740;SDS011;48790;55.656;37.702;2022-09-09T03:03:29;9.80;;;4.07;;
62740;SDS011;48790;55.656;37.702;2022-09-09T03:05:56;6.28;;;3.88;;
62740;SDS011;48790;55.656;37.702;2022-09-09T03:08:22;5.28;;;3.65;;
62740;SDS011;48790;55.656;37.702;2022-09-09T03:10:49;8.15;;;3.80;;
62740;SDS011;48790;55.656;37.702;2022-09-09T03:13:15;22.92;;;4.35;;
62740;SDS011;48790;55.656;37.702;2022-09-09T03:15:41;8.68;;;4.00;;
62740;SDS011;48790;55.656;37.702;2022-09-09T03:18:12;7.18;;;3.70;;
62740;SDS011;48790;55.656;37.702;2022-09-09T03:20:38;6.05;;;3.72;;
62740;SDS011;48790;55.656;37.702;2022-09-09T03:23:04;10.32;;;4.25;;
62740;SDS011;48790;55.656;37.702;2022-09-09T03:25:30;16.48;;;4.50;;
62740;SDS011;48790;55.656;37.702;2022-09-09T03:27:58;8.40;;;4.38;;
62740;SDS011;48790;55.656;37.702;2022-09-09T03:30:24;13.15;;;4.53;;
62740;SDS011;48790;55.656;37.702;2022-09-09T03:32:51;8.82;;;4.13;;
62740;SDS011;48790;55.656;37.702;2022-09-09T03:35:18;11.27;;;4.25;;
62740;SDS011;48790;55.656;37.702;2022-09-09T03:37:44;14.82;;;4.68;;
62740;SDS011;48790;55.656;37.702;2022-09-09T03:40:12;6.47;;;4.25;;
62740;SDS011;48790;55.656;37.702;2022-09-09T03:42:38;7.28;;;4.15;;
62740;SDS011;48790;55.656;37.702;2022-09-09T03:45:05;13.45;;;4.93;;
62740;SDS011;48790;55.656;37.702;2022-09-09T03:47:31;9.00;;;4.03;;
62740;SDS011;48790;55.656;37.702;2022-09-09T03:50:04;6.95;;;4.68;;
62740;SDS011;48790;55.656;37.702;2022-09-09T03:52:37;6.60;;;4.00;;
62740;SDS011;48790;55.656;37.702;2022-09-09T03:55:04;8.65;;;4.57;;
62740;SDS011;48790;55.656;37.702;2022-09-09T03:57:30;9.63;;;4.45;;
62740;SDS011;48790;55.656;37.702;2022-09-09T03:59:56;7.30;;;4.13;;
62740;SDS011;48790;55.656;37.702;2022-09-09T04:02:23;9.40;;;4.50;;
62740;SDS011;48790;55.656;37.702;2022-09-09T04:04:49;7.63;;;4.47;;
62740;SDS011;48790;55.656;37.702;2022-09-09T04:07:16;11.45;;;4.55;;
62740;SDS011;48790;55.656;37.702;2022-09-09T04:09:42;6.55;;;4.05;;
62740;SDS011;48790;55.656;37.702;2022-09-09T04:12:09;9.73;;;4.20;;
62740;SDS011;48790;55.656;37.702;2022-09-09T04:14:39;10.43;;;5.20;;
62740;SDS011;48790;55.656;37.702;2022-09-09T04:17:06;6.97;;;3.75;;
62740;SDS011;48790;55.656;37.702;2022-09-09T04:19:33;9.48;;;4.28;;
62740;SDS011;48790;55.656;37.702;2022-09-09T04:21:59;7.07;;;4.50;;
62740;SDS011;48790;55.656;37.702;2022-09-09T04:24:25;11.95;;;4.82;;
62740;SDS011;48790;55.656;37.702;2022-09-09T04:26:53;11.25;;;4.18;;
62740;SDS011;48790;55.656;37.702;2022-09-09T04:29:19;9.10;;;4.15;;
62740;SDS011;48790;55.656;37.702;2022-09-09T04:31:45;8.60;;;3.80;;
62740;SDS011;48790;55.656;37.702;2022-09-09T04:34:12;14.07;;;4.28;;
62740;SDS011;48790;55.656;37.702;2022-09-09T04:36:38;10.40;;;4.53;;
62740;SDS011;48790;55.656;37.702;2022-09-09T04:39:06;12.90;;;3.97;;
62740;SDS011;48790;55.656;37.702;2022-09-09T04:41:32;8.70;;;4.32;;
62740;SDS011;48790;55.656;37.702;2022-09-09T04:43:59;7.88;;;4.45;;
62740;SDS011;48790;55.656;37.702;2022-09-09T04:46:26;14.00;;;4.75;;
62740;SDS011;48790;55.656;37.702;2022-09-09T04:48:52;15.98;;;5.20;;
62740;SDS011;48790;55.656;37.702;2022-09-09T04:51:20;13.73;;;5.10;;
62740;SDS011;48790;55.656;37.702;2022-09-09T04:53:47;10.32;;;4.45;;
62740;SDS011;48790;55.656;37.702;2022-09-09T04:56:15;12.82;;;5.10;;
62740;SDS011;48790;55.656;37.702;2022-09-09T04:58:53;11.27;;;4.32;;
62740;SDS011;48790;55.656;37.702;2022-09-09T05:01:23;15.35;;;4.20;;
62740;SDS011;48790;55.656;37.702;2022-09-09T05:03:51;7.45;;;3.78;;
62740;SDS011;48790;55.656;37.702;2022-09-09T05:06:21;11.20;;;4.57;;
62740;SDS011;48790;55.656;37.702;2022-09-09T05:08:49;11.65;;;4.10;;
62740;SDS011;48790;55.656;37.702;2022-09-09T05:11:22;13.25;;;4.40;;
62740;SDS011;48790;55.656;37.702;2022-09-09T05:16:17;12.68;;;4.00;;
62740;SDS011;48790;55.656;37.702;2022-09-09T05:18:44;7.57;;;3.97;;
62740;SDS011;48790;55.656;37.702;2022-09-09T05:21:12;7.65;;;4.05;;
62740;SDS011;48790;55.656;37.702;2022-09-09T05:23:39;6.65;;;3.45;;
62740;SDS011;48790;55.656;37.702;2022-09-09T05:26:05;8.00;;;3.55;;
62740;SDS011;48790;55.656;37.702;2022-09-09T05:28:36;10.80;;;3.92;;
62740;SDS011;48790;55.656;37.702;2022-09-09T05:31:06;12.20;;;3.70;;
62740;SDS011;48790;55.656;37.702;2022-09-09T05:33:39;13.13;;;4.00;;
62740;SDS011;48790;55.656;37.702;2022-09-09T05:36:07;9.77;;;3.90;;
62740;SDS011;48790;55.656;37.702;2022-09-09T05:38:34;10.77;;;3.75;;
62740;SDS011;48790;55.656;37.702;2022-09-09T05:41:02;10.77;;;4.03;;
62740;SDS011;48790;55.656;37.702;2022-09-09T05:43:29;10.80;;;3.97;;
62740;SDS011;48790;55.656;37.702;2022-09-09T05:46:02;15.52;;;3.78;;
62740;SDS011;48790;55.656;37.702;2022-09-09T05:48:30;11.02;;;3.45;;
62740;SDS011;48790;55.656;37.702;2022-09-09T05:51:20;7.30;;;3.30;;
62740;SDS011;48790;55.656;37.702;2022-09-09T05:53:47;13.57;;;3.97;;
62740;SDS011;48790;55.656;37.702;2022-09-09T05:56:14;11.23;;;3.67;;
62740;SDS011;48790;55.656;37.702;2022-09-09T05:58:42;9.00;;;2.90;;
62740;SDS011;48790;55.656;37.702;2022-09-09T06:01:14;9.23;;;3.40;;
62740;SDS011;48790;55.656;37.702;2022-09-09T06:03:42;5.57;;;2.90;;
62740;SDS011;48790;55.656;37.702;2022-09-09T06:06:09;7.88;;;3.28;;
62740;SDS011;48790;55.656;37.702;2022-09-09T06:08:37;13.38;;;3.33;;
62740;SDS011;48790;55.656;37.702;2022-09-09T06:11:05;5.25;;;2.72;;
62740;SDS011;48790;55.656;37.702;2022-09-09T06:13:32;11.65;;;2.88;;
62740;SDS011;48790;55.656;37.702;2022-09-09T06:15:58;8.00;;;2.88;;
62740;SDS011;48790;55.656;37.702;2022-09-09T06:18:25;4.82;;;2.90;;
62740;SDS011;48790;55.656;37.702;2022-09-09T06:21:03;9.77;;;3.10;;
62740;SDS011;48790;55.656;37.702;2022-09-09T06:23:30;7.28;;;2.70;;
62740;SDS011;48790;55.656;37.702;2022-09-09T06:26:04;12.90;;;2.65;;
62740;SDS011;48790;55.656;37.702;2022-09-09T06:28:33;4.78;;;2.60;;
62740;SDS011;48790;55.656;37.702;2022-09-09T06:30:59;6.78;;;2.45;;
62740;SDS011;48790;55.656;37.702;2022-09-09T06:33:26;6.57;;;2.10;;
62740;SDS011;48790;55.656;37.702;2022-09-09T06:35:53;4.95;;;2.17;;
62740;SDS011;48790;55.656;37.702;2022-09-09T06:38:20;10.98;;;2.10;;
62740;SDS011;48790;55.656;37.702;2022-09-09T06:40:52;6.93;;;2.28;;
62740;SDS011;48790;55.656;37.702;2022-09-09T06:43:20;7.30;;;2.30;;
62740;SDS011;48790;55.656;37.702;2022-09-09T06:45:56;9.18;;;2.10;;
62740;SDS011;48790;55.656;37.702;2022-09-09T06:48:22;8.93;;;2.00;;
62740;SDS011;48790;55.656;37.702;2022-09-09T06:50:48;11.77;;;2.78;;
62740;SDS011;48790;55.656;37.702;2022-09-09T06:53:16;8.93;;;1.90;;
62740;SDS011;48790;55.656;37.702;2022-09-09T06:55:45;1.60;;;1.40;;
62740;SDS011;48790;55.656;37.702;2022-09-09T06:58:13;3.85;;;1.70;;
62740;SDS011;48790;55.656;37.702;2022-09-09T07:00:39;3.72;;;1.80;;
62740;SDS011;48790;55.656;37.702;2022-09-09T07:03:05;4.03;;;1.70;;
62740;SDS011;48790;55.656;37.702;2022-09-09T07:05:31;1.67;;;1.50;;
62740;SDS011;48790;55.656;37.702;2022-09-09T07:07:57;3.08;;;2.00;;
62740;SDS011;48790;55.656;37.702;2022-09-09T07:10:25;4.18;;;2.40;;
62740;SDS011;48790;55.656;37.702;2022-09-09T07:12:51;2.97;;;1.55;;
62740;SDS011;48790;55.656;37.702;2022-09-09T07:15:19;6.57;;;1.70;;
62740;SDS011;48790;55.656;37.702;2022-09-09T07:17:44;14.25;;;2.22;;
62740;SDS011;48790;55.656;37.702;2022-09-09T07:20:11;7.15;;;1.90;;
62740;SDS011;48790;55.656;37.702;2022-09-09T07:22:38;3.67;;;1.30;;
62740;SDS011;48790;55.656;37.702;2022-09-09T07:25:05;8.43;;;1.40;;
62740;SDS011;48790;55.656;37.702;2022-09-09T07:27:31;5.53;;;1.73;;
62740;SDS011;48790;55.656;37.702;2022-09-09T07:29:57;9.05;;;2.30;;
62740;SDS011;48790;55.656;37.702;2022-09-09T07:32:24;4.47;;;1.67;;
62740;SDS011;48790;55.656;37.702;2022-09-09T07:34:52;11.68;;;1.98;;
62740;SDS011;48790;55.656;37.702;2022-09-09T07:37:26;5.30;;;1.80;;
62740;SDS011;48790;55.656;37.702;2022-09-09T07:39:53;7.82;;;1.95;;
62740;SDS011;48790;55.656;37.702;2022-09-09T07:42:20;1.38;;;1.27;;
62740;SDS011;48790;55.656;37.702;2022-09-09T07:44:47;6.07;;;1.25;;
62740;SDS011;48790;55.656;37.702;2022-09-09T07:47:15;5.22;;;1.50;;
62740;SDS011;48790;55.656;37.702;2022-09-09T07:49:44;6.00;;;1.52;;
62740;SDS011;48790;55.656;37.702;2022-09-09T07:52:13;4.15;;;1.77;;
62740;SDS011;48790;55.656;37.702;2022-09-09T07:54:42;3.15;;;1.48;;
62740;SDS011;48790;55.656;37.702;2022-09-09T07:57:09;6.35;;;2.00;;
62740;SDS011;48790;55.656;37.702;2022-09-09T07:59:37;3.83;;;1.67;;
62740;SDS011;48790;55.656;37.702;2022-09-09T08:02:03;3.63;;;1.70;;
62740;SDS011;48790;55.656;37.702;2022-09-09T08:04:32;6.85;;;1.70;;
62740;SDS011;48790;55.656;37.702;2022-09-09T08:06:59;2.47;;;1.42;;
62740;SDS011;48790;55.656;37.702;2022-09-09T08:09:28;2.28;;;1.60;;
62740;SDS011;48790;55.656;37.702;2022-09-09T08:12:01;5.47;;;1.77;;
62740;SDS011;48790;55.656;37.702;2022-09-09T08:14:28;10.45;;;1.65;;
62740;SDS011;48790;55.656;37.702;2022-09-09T08:16:56;9.13;;;1.67;;
62740;SDS011;48790;55.656;37.702;2022-09-09T08:19:25;7.18;;;1.80;;
62740;SDS011;48790;55.656;37.702;2022-09-09T08:21:53;3.97;;;2.10;;
62740;SDS011;48790;55.656;37.702;2022-09-09T08:24:19;3.08;;;1.75;;
62740;SDS011;48790;55.656;37.702;2022-09-09T08:26:48;4.32;;;1.52;;
62740;SDS011;48790;55.656;37.702;2022-09-09T08:29:17;10.05;;;1.73;;
62740;SDS011;48790;55.656;37.702;2022-09-09T08:31:48;2.90;;;1.23;;
62740;SDS011;48790;55.656;37.702;2022-09-09T08:34:15;5.47;;;1.40;;
62740;SDS011;48790;55.656;37.702;2022-09-09T08:36:43;4.10;;;1.30;;
62740;SDS011;48790;55.656;37.702;2022-09-09T08:39:11;2.08;;;1.35;;
62740;SDS011;48790;55.656;37.702;2022-09-09T08:41:41;6.55;;;2.20;;
62740;SDS011;48790;55.656;37.702;2022-09-09T08:51:31;13.38;;;1.70;;
62740;SDS011;48790;55.656;37.702;2022-09-09T08:53:59;1.52;;;1.35;;
62740;SDS011;48790;55.656;37.702;2022-09-09T08:56:27;1.80;;;1.30;;
62740;SDS011;48790;55.656;37.702;2022-09-09T08:58:57;2.40;;;1.35;;
62740;SDS011;48790;55.656;37.702;2022-09-09T09:01:35;6.03;;;1.50;;
62740;SDS011;48790;55.656;37.702;2022-09-09T09:11:56;4.88;;;1.38;;
62740;SDS011;48790;55.656;37.702;2022-09-09T09:14:35;3.97;;;1.60;;
62740;SDS011;48790;55.656;37.702;2022-09-09T09:17:07;7.43;;;1.50;;
62740;SDS011;48790;55.656;37.702;2022-09-09T09:19:35;7.43;;;1.80;;
62740;SDS011;48790;55.656;37.702;2022-09-09T09:27:35;2.60;;;1.33;;
62740;SDS011;48790;55.656;37.702;2022-09-09T09:30:12;2.45;;;1.10;;
62740;SDS011;48790;55.656;37.702;2022-09-09T09:32:39;4.45;;;1.58;;
62740;SDS011;48790;55.656;37.702;2022-09-09T09:35:10;2.42;;;1.30;;
62740;SDS011;48790;55.656;37.702;2022-09-09T09:37:37;3.78;;;1.30;;
62740;SDS011;48790;55.656;37.702;2022-09-09T09:40:11;6.13;;;1.30;;
62740;SDS011;48790;55.656;37.702;2022-09-09T09:42:38;3.38;;;1.70;;
62740;SDS011;48790;55.656;37.702;2022-09-09T09:45:16;3.80;;;1.42;;
62740;SDS011;48790;55.656;37.702;2022-09-09T09:47:45;4.03;;;1.67;;
62740;SDS011;48790;55.656;37.702;2022-09-09T09:50:19;2.30;;;1.38;;
62740;SDS011;48790;55.656;37.702;2022-09-09T09:53:00;4.32;;;1.50;;
62740;SDS011;48790;55.656;37.702;2022-09-09T09:55:31;3.40;;;1.40;;
62740;SDS011;48790;55.656;37.702;2022-09-09T09:58:06;9.93;;;1.90;;
62740;SDS011;48790;55.656;37.702;2022-09-09T10:00:32;2.58;;;1.30;;
62740;SDS011;48790;55.656;37.702;2022-09-09T10:03:13;1.85;;;1.30;;
62740;SDS011;48790;55.656;37.702;2022-09-09T10:05:45;1.77;;;1.10;;
62740;SDS011;48790;55.656;37.702;2022-09-09T10:08:13;3.92;;;1.50;;
62740;SDS011;48790;55.656;37.702;2022-09-09T10:16:29;2.55;;;1.30;;
62740;SDS011;48790;55.656;37.702;2022-09-09T10:24:08;4.43;;;1.60;;
62740;SDS011;48790;55.656;37.702;2022-09-09T10:29:11;2.88;;;1.52;;
62740;SDS011;48790;55.656;37.702;2022-09-09T10:34:47;5.00;;;1.35;;
62740;SDS011;48790;55.656;37.702;2022-09-09T10:37:21;2.60;;;1.30;;
62740;SDS011;48790;55.656;37.702;2022-09-09T10:39:50;4.72;;;1.35;;
62740;SDS011;48790;55.656;37.702;2022-09-09T10:42:23;1.35;;;1.20;;
62740;SDS011;48790;55.656;37.702;2022-09-09T10:55:18;4.63;;;1.65;;
62740;SDS011;48790;55.656;37.702;2022-09-09T10:57:48;3.47;;;1.70;;
62740;SDS011;48790;55.656;37.702;2022-09-09T11:02:41;2.40;;;1.60;;
62740;SDS011;48790;55.656;37.702;2022-09-09T11:05:14;3.00;;;1.90;;
62740;SDS011;48790;55.656;37.702;2022-09-09T11:13:00;4.00;;;1.80;;
62740;SDS011;48790;55.656;37.702;2022-09-09T11:15:35;2.47;;;1.60;;
62740;SDS011;48790;55.656;37.702;2022-09-09T11:18:04;3.53;;;1.80;;
62740;SDS011;48790;55.656;37.702;2022-09-09T11:20:31;2.45;;;1.60;;
62740;SDS011;48790;55.656;37.702;2022-09-09T11:23:33;1.52;;;1.10;;
62740;SDS011;48790;55.656;37.702;2022-09-09T11:25:51;6.00;;;1.30;;
62740;SDS011;48790;55.656;37.702;2022-09-09T11:39:42;4.25;;;1.40;;
62740;SDS011;48790;55.656;37.702;2022-09-09T11:41:40;4.65;;;1.50;;
62740;SDS011;48790;55.656;37.702;2022-09-09T11:44:12;1.85;;;1.40;;
62740;SDS011;48790;55.656;37.702;2022-09-09T11:46:49;3.78;;;1.50;;
62740;SDS011;48790;55.656;37.702;2022-09-09T11:52:10;3.33;;;1.35;;
62740;SDS011;48790;55.656;37.702;2022-09-09T11:54:44;3.88;;;1.60;;
62740;SDS011;48790;55.656;37.702;2022-09-09T12:00:27;3.92;;;1.60;;
62740;SDS011;48790;55.656;37.702;2022-09-09T12:02:54;2.08;;;1.50;;
62740;SDS011;48790;55.656;37.702;2022-09-09T12:05:20;1.77;;;1.10;;
62740;SDS011;48790;55.656;37.702;2022-09-09T12:08:05;4.50;;;1.30;;
62740;SDS011;48790;55.656;37.702;2022-09-09T12:10:33;2.97;;;1.70;;
62740;SDS011;48790;55.656;37.702;2022-09-09T12:13:18;1.67;;;1.30;;
62740;SDS011;48790;55.656;37.702;2022-09-09T12:15:47;5.28;;;1.50;;
62740;SDS011;48790;55.656;37.702;2022-09-09T12:18:15;3.10;;;1.50;;
62740;SDS011;48790;55.656;37.702;2022-09-09T12:20:51;6.22;;;1.38;;
62740;SDS011;48790;55.656;37.702;2022-09-09T12:23:26;2.20;;;1.50;;
62740;SDS011;48790;55.656;37.702;2022-09-09T12:34:09;5.85;;;1.83;;
62740;SDS011;48790;55.656;37.702;2022-09-09T12:36:36;4.95;;;1.42;;
62740;SDS011;48790;55.656;37.702;2022-09-09T12:39:17;4.22;;;1.60;;
62740;SDS011;48790;55.656;37.702;2022-09-09T12:41:50;2.45;;;1.60;;
62740;SDS011;48790;55.656;37.702;2022-09-09T12:44:18;2.30;;;1.50;;
62740;SDS011;48790;55.656;37.702;2022-09-09T12:46:44;8.05;;;1.98;;
62740;SDS011;48790;55.656;37.702;2022-09-09T12:52:41;4.15;;;1.75;;
62740;SDS011;48790;55.656;37.702;2022-09-09T12:54:49;3.90;;;2.00;;
62740;SDS011;48790;55.656;37.702;2022-09-09T12:57:17;6.13;;;2.25;;
62740;SDS011;48790;55.656;37.702;2022-09-09T12:59:44;4.78;;;1.70;;
62740;SDS011;48790;55.656;37.702;2022-09-09T13:02:19;3.22;;;2.00;;
62740;SDS011;48790;55.656;37.702;2022-09-09T13:04:45;2.80;;;1.85;;
62740;SDS011;48790;55.656;37.702;2022-09-09T13:07:12;6.53;;;2.10;;
62740;SDS011;48790;55.656;37.702;2022-09-09T13:09:39;3.75;;;1.70;;
62740;SDS011;48790;55.656;37.702;2022-09-09T13:12:05;3.85;;;1.77;;
62740;SDS011;48790;55.656;37.702;2022-09-09T13:14:37;3.80;;;1.77;;
62740;SDS011;48790;55.656;37.702;2022-09-09T13:17:06;5.97;;;1.83;;
62740;SDS011;48790;55.656;37.702;2022-09-09T13:19:34;4.40;;;1.80;;
62740;SDS011;48790;55.656;37.702;2022-09-09T13:22:26;4.88;;;1.98;;
62740;SDS011;48790;55.656;37.702;2022-09-09T13:25:01;4.68;;;2.15;;
62740;SDS011;48790;55.656;37.702;2022-09-09T13:27:33;3.55;;;1.80;;
62740;SDS011;48790;55.656;37.702;2022-09-09T13:30:00;4.65;;;2.28;;
62740;SDS011;48790;55.656;37.702;2022-09-09T13:32:26;4.15;;;2.17;;
62740;SDS011;48790;55.656;37.702;2022-09-09T13:34:57;7.32;;;2.47;;
62740;SDS011;48790;55.656;37.702;2022-09-09T13:37:32;10.75;;;2.88;;
62740;SDS011;48790;55.656;37.702;2022-09-09T13:39:59;4.82;;;2.50;;
62740;SDS011;48790;55.656;37.702;2022-09-09T13:42:26;6.47;;;2.60;;
62740;SDS011;48790;55.656;37.702;2022-09-09T13:44:56;8.73;;;2.17;;
62740;SDS011;48790;55.656;37.702;2022-09-09T13:47:34;7.82;;;1.95;;
62740;SDS011;48790;55.656;37.702;2022-09-09T13:52:56;5.68;;;2.03;;
62740;SDS011;48790;55.656;37.702;2022-09-09T13:55:29;7.38;;;1.95;;
62740;SDS011;48790;55.656;37.702;2022-09-09T13:57:56;9.57;;;2.17;;
62740;SDS011;48790;55.656;37.702;2022-09-09T14:00:22;9.85;;;2.30;;
62740;SDS011;48790;55.656;37.702;2022-09-09T14:02:49;10.45;;;2.58;;
62740;SDS011;48790;55.656;37.702;2022-09-09T14:05:15;11.93;;;2.55;;
62740;SDS011;48790;55.656;37.702;2022-09-09T14:07:42;5.22;;;2.10;;
62740;SDS011;48790;55.656;37.702;2022-09-09T14:10:09;6.63;;;2.22;;
62740;SDS011;48790;55.656;37.702;2022-09-09T14:12:35;9.45;;;2.10;;
62740;SDS011;48790;55.656;37.702;2022-09-09T14:15:02;5.47;;;2.08;;
62740;SDS011;48790;55.656;37.702;2022-09-09T14:17:29;6.65;;;2.10;;
62740;SDS011;48790;55.656;37.702;2022-09-09T14:19:56;13.13;;;3.10;;
62740;SDS011;48790;55.656;37.702;2022-09-09T14:22:22;11.38;;;2.50;;
62740;SDS011;48790;55.656;37.702;2022-09-09T14:24:48;7.60;;;2.85;;
62740;SDS011;48790;55.656;37.702;2022-09-09T14:27:14;20.52;;;3.65;;
62740;SDS011;48790;55.656;37.702;2022-09-09T14:29:40;7.10;;;2.47;;
62740;SDS011;48790;55.656;37.702;2022-09-09T14:32:06;6.72;;;2.20;;
62740;SDS011;48790;55.656;37.702;2022-09-09T14:34:32;11.90;;;2.30;;
62740;SDS011;48790;55.656;37.702;2022-09-09T14:36:58;10.02;;;2.92;;
62740;SDS011;48790;55.656;37.702;2022-09-09T14:39:24;8.73;;;2.28;;
62740;SDS011;48790;55.656;37.702;2022-09-09T14:41:50;5.53;;;1.90;;
62740;SDS011;48790;55.656;37.702;2022-09-09T14:44:16;4.30;;;1.80;;
62740;SDS011;48790;55.656;37.702;2022-09-09T14:46:41;6.00;;;2.00;;
62740;SDS011;48790;55.656;37.702;2022-09-09T14:49:10;4.38;;;2.20;;
62740;SDS011;48790;55.656;37.702;2022-09-09T14:51:38;6.18;;;2.30;;
62740;SDS011;48790;55.656;37.702;2022-09-09T14:54:04;6.88;;;1.90;;
62740;SDS011;48790;55.656;37.702;2022-09-09T14:56:31;9.00;;;2.00;;
62740;SDS011;48790;55.656;37.702;2022-09-09T14:59:00;4.80;;;1.95;;
62740;SDS011;48790;55.656;37.702;2022-09-09T15:01:26;6.15;;;1.92;;
62740;SDS011;48790;55.656;37.702;2022-09-09T15:03:53;4.72;;;2.08;;
62740;SDS011;48790;55.656;37.702;2022-09-09T15:06:21;3.22;;;1.60;;
62740;SDS011;48790;55.656;37.702;2022-09-09T15:08:49;7.38;;;1.90;;
62740;SDS011;48790;55.656;37.702;2022-09-09T15:11:18;3.20;;;1.75;;
62740;SDS011;48790;55.656;37.702;2022-09-09T15:13:44;5.90;;;1.90;;
62740;SDS011;48790;55.656;37.702;2022-09-09T15:16:11;3.15;;;1.73;;
62740;SDS011;48790;55.656;37.702;2022-09-09T15:18:37;7.18;;;1.80;;
62740;SDS011;48790;55.656;37.702;2022-09-09T15:21:05;7.22;;;1.83;;
62740;SDS011;48790;55.656;37.702;2022-09-09T15:23:32;7.88;;;2.20;;
62740;SDS011;48790;55.656;37.702;2022-09-09T15:26:05;5.35;;;1.90;;
62740;SDS011;48790;55.656;37.702;2022-09-09T15:28:35;3.60;;;1.90;;
62740;SDS011;48790;55.656;37.702;2022-09-09T15:31:05;6.68;;;2.40;;
62740;SDS011;48790;55.656;37.702;2022-09-09T15:33:32;7.53;;;2.00;;
62740;SDS011;48790;55.656;37.702;2022-09-09T15:35:58;6.80;;;1.85;;
62740;SDS011;48790;55.656;37.702;2022-09-09T15:38:23;6.57;;;1.70;;
62740;SDS011;48790;55.656;37.702;2022-09-09T15:40:56;4.78;;;2.10;;
62740;SDS011;48790;55.656;37.702;2022-09-09T15:43:22;3.33;;;1.80;;
62740;SDS011;48790;55.656;37.702;2022-09-09T15:45:52;5.60;;;2.08;;
62740;SDS011;48790;55.656;37.702;2022-09-09T15:48:26;7.32;;;2.22;;
62740;SDS011;48790;55.656;37.702;2022-09-09T15:51:02;3.95;;;1.70;;
62740;SDS011;48790;55.656;37.702;2022-09-09T15:53:29;8.98;;;2.05;;
62740;SDS011;48790;55.656;37.702;2022-09-09T15:55:55;8.80;;;2.55;;
62740;SDS011;48790;55.656;37.702;2022-09-09T15:58:21;7.07;;;2.90;;
62740;SDS011;48790;55.656;37.702;2022-09-09T16:00:47;18.95;;;2.90;;
62740;SDS011;48790;55.656;37.702;2022-09-09T16:03:13;4.47;;;2.75;;
62740;SDS011;48790;55.656;37.702;2022-09-09T16:05:39;6.32;;;3.25;;
62740;SDS011;48790;55.656;37.702;2022-09-09T16:08:05;9.27;;;3.20;;
62740;SDS011;48790;55.656;37.702;2022-09-09T16:10:31;8.48;;;3.53;;
62740;SDS011;48790;55.656;37.702;2022-09-09T16:12:57;6.13;;;3.42;;
62740;SDS011;48790;55.656;37.702;2022-09-09T16:15:24;8.02;;;3.05;;
62740;SDS011;48790;55.656;37.702;2022-09-09T16:17:53;13.90;;;3.10;;
62740;SDS011;48790;55.656;37.702;2022-09-09T16:20:18;7.05;;;3.58;;
62740;SDS011;48790;55.656;37.702;2022-09-09T16:22:45;9.27;;;3.10;;
62740;SDS011;48790;55.656;37.702;2022-09-09T16:25:11;11.05;;;3.08;;
62740;SDS011;48790;55.656;37.702;2022-09-09T16:27:37;13.00;;;3.00;;
62740;SDS011;48790;55.656;37.702;2022-09-09T16:30:02;4.63;;;2.42;;
62740;SDS011;48790;55.656;37.702;2022-09-09T16:32:28;11.65;;;3.03;;
62740;SDS011;48790;55.656;37.702;2022-09-09T16:34:55;10.57;;;3.35;;
62740;SDS011;48790;55.656;37.702;2022-09-09T16:37:20;11.10;;;3.15;;
62740;SDS011;48790;55.656;37.702;2022-09-09T16:39:46;12.70;;;3.00;;
62740;SDS011;48790;55.656;37.702;2022-09-09T16:42:13;7.70;;;2.95;;
62740;SDS011;48790;55.656;37.702;2022-09-09T16:44:39;8.50;;;2.97;;